Lamar, AR (72846)

7:56 AM CST on February 22, 2017 (GMT -0600)
The GRAPHIC(West Main) | | Change Station
Active Advisory: Dense Fog Advisory

Elev 410 ft 35.47 °N, 93.50 °W | Updated 2 seconds ago

Overcast
Overcast
49.8 °F
Feels Like 50 °F
N
1.2
Wind Variable Wind from ENE
Gusts 0.0 mph

Today
High -- | Low -- °F
--% Chance of Precip.
Yesterday
High -- | Low -- °F
Precip. -- in
Pressure 29.88 in
Visibility 0.2 miles
Clouds
Windchill 50 °F
Dew Point 49 °F
Humidity 96%
Rainfall 0.00 in
Snow Depth Not available.
6:51 AM 6:02 PM
Waning Crescent, 17% visible
METAR KRUE 221253Z AUTO 00000KT 1/4SM FG VV001 09/09 A2989 RMK AO2 SLP116 T00940094
Pressure 29.88 in
Visibility 0.2 miles
Clouds
Windchill 50 °F
Dew Point 49 °F
Humidity 96%
Rainfall 0.00 in
Snow Depth Not available.
6:51 AM 6:02 PM
Waning Crescent, 17% visible
METAR KRUE 221253Z AUTO 00000KT 1/4SM FG VV001 09/09 A2989 RMK AO2 SLP116 T00940094

Get Your Daily Forecast Email!

Thanks for signing up!

Be on the lookout for a verification email in your inbox.

You'll start receiving the daily forecast at 8 AM.

×

10-Day Weather Forecast

Almanac

Astronomy

Feb. 22, 2017 Rise Set
Actual Time
Civil Twilight
Nautical Twilight
Astronomical Twilight
Moon
Length of Visible Light
Length of Day
Tomorrow will be .
, % of the Moon is Illuminated

Today's Extremes

State Highs State Lows

Community

WunderPhotos

Upload Photos

1,962,540 photos uploaded!

WunderBlog® & News

Nearby

Air Quality

  Air Quality AQ Index Pollutant
Not available.

Snow Depth

Station Depth Elevation

Earthquake Activity

City Distance Mag. Time & Date
Minimum magnitude displayed is 2.5.

Coastal Water Temperatures

Place Temperature

Stations

Nearby Weather Stations

Station Location Temp. Windchill Dew Point Humidity Wind Precip. Elev Updated Type
                   

Watches & Warnings

Dense Fog Advisory
Issued: 6:01 AM CST Feb. 22, 2017 – National Weather Service

... Dense fog advisory now in effect until 9 am CST this morning...

* event... dense fog.

* Areas affected... much of central and northern Arkansas.

* Visibility... at times, less than one quarter mile.

* Impacts... reduced visibility will create hazardous driving
conditions.

Precautionary/preparedness actions...

A dense fog advisory means visibilities will frequently be
reduced to less than one quarter mile. If driving... slow down...
use your headlights... and leave plenty of distance ahead of you.